Time;durP1;ratioP1;P1;durP2;ratioP2;P2;SDS_P1;SDS_P2;PMS_P1;PMS_P2;Temp;Humidity;BMP_temperature;BMP_pressure;BME280_temperature;BME280_humidity;BME280_pressure;Samples;Min_cycle;Max_cycle;Signal;HPM_P1;HPM_P2
2022/05/14 00:01:21;;;;;;;7.82;2.20;;;13.40;1.00;;;;;;4969805;28;20467;-59
2022/05/14 00:03:47;;;;;;;6.50;2.30;;;13.30;1.00;;;;;;4970456;28;20396;-59
2022/05/14 00:06:20;;;;;;;8.20;2.67;;;13.30;1.00;;;;;;4967440;28;20418;-55
2022/05/14 00:08:46;;;;;;;7.50;2.50;;;13.30;1.00;;;;;;4970177;28;20408;-59
2022/05/14 00:13:57;;;;;;;8.93;2.72;;;13.10;27.70;;;;;;4972538;28;20436;-59
2022/05/14 00:16:25;;;;;;;7.18;2.65;;;13.00;52.30;;;;;;4973080;28;20397;-59
2022/05/14 00:18:52;;;;;;;7.03;2.30;;;13.00;46.90;;;;;;4974945;28;20431;-59
2022/05/14 00:21:19;;;;;;;7.10;2.80;;;12.90;99.90;;;;;;4973429;28;20438;-58
2022/05/14 00:23:45;;;;;;;7.72;2.50;;;12.80;1.00;;;;;;4976380;28;20773;-59
2022/05/14 00:26:12;;;;;;;6.50;2.63;;;12.70;1.00;;;;;;4973770;28;20454;-59
2022/05/14 00:28:37;;;;;;;9.60;2.88;;;12.70;1.00;;;;;;4974505;28;20455;-59
2022/05/14 00:31:04;;;;;;;6.50;2.70;;;12.70;1.00;;;;;;4974334;28;20493;-58
2022/05/14 00:33:29;;;;;;;8.47;2.70;;;12.60;1.00;;;;;;4973056;28;20400;-58
2022/05/14 00:35:56;;;;;;;10.32;2.80;;;12.70;1.00;;;;;;4978128;28;20404;-59
2022/05/14 00:38:21;;;;;;;9.55;3.05;;;12.60;1.00;;;;;;4972818;28;20802;-59
2022/05/14 00:40:55;;;;;;;8.00;2.80;;;12.60;1.00;;;;;;4974072;28;20412;-59
2022/05/14 00:43:21;;;;;;;8.50;2.80;;;12.60;34.40;;;;;;4974878;28;20404;-58
2022/05/14 00:45:58;;;;;;;8.88;2.90;;;12.60;1.00;;;;;;4974862;28;20399;-58
2022/05/14 00:48:29;;;;;;;7.82;2.80;;;12.60;1.00;;;;;;4972376;28;20479;-58
2022/05/14 00:50:57;;;;;;;8.60;2.80;;;12.50;1.00;;;;;;4971097;28;20520;-56
2022/05/14 00:53:30;;;;;;;10.30;3.20;;;12.50;99.90;;;;;;4972755;28;20384;-58
2022/05/14 00:55:58;;;;;;;8.13;2.70;;;12.50;99.90;;;;;;4971321;28;20491;-58
2022/05/14 00:58:35;;;;;;;8.40;3.20;;;12.40;99.90;;;;;;4972565;28;20407;-58
2022/05/14 01:01:00;;;;;;;9.20;3.10;;;12.40;1.00;;;;;;4971886;28;20490;-58
2022/05/14 01:03:26;;;;;;;8.20;3.00;;;12.30;1.00;;;;;;4972861;28;20959;-58
2022/05/14 01:05:53;;;;;;;9.20;2.85;;;12.30;1.00;;;;;;4955977;28;20408;-58
2022/05/14 01:08:19;;;;;;;8.48;2.90;;;12.30;1.00;;;;;;4978181;28;20888;-58
2022/05/14 01:10:46;;;;;;;7.32;3.10;;;12.10;1.00;;;;;;4992619;28;20425;-58
2022/05/14 01:13:12;;;;;;;8.40;3.30;;;12.00;1.00;;;;;;4992478;28;20395;-58
2022/05/14 01:15:49;;;;;;;9.60;3.35;;;12.00;1.00;;;;;;4991264;28;20452;-58
2022/05/14 01:18:17;;;;;;;9.05;3.50;;;12.10;1.00;;;;;;4989439;28;20430;-55
2022/05/14 01:20:50;;;;;;;8.53;3.67;;;12.10;1.00;;;;;;4992418;28;20962;-58
2022/05/14 01:23:28;;;;;;;8.10;4.00;;;12.00;1.00;;;;;;4988718;28;20394;-55
2022/05/14 01:26:30;;;;;;;12.60;4.10;;;12.00;1.00;;;;;;4989586;28;20461;-58
2022/05/14 01:29:01;;;;;;;8.40;3.87;;;11.70;1.00;;;;;;4989834;28;20402;-58
2022/05/14 01:31:28;;;;;;;8.90;4.30;;;11.70;22.60;;;;;;4991408;28;20414;-58
2022/05/14 01:33:55;;;;;;;7.82;4.13;;;11.60;99.90;;;;;;4990106;28;20872;-58
2022/05/14 01:36:21;;;;;;;9.05;4.20;;;11.60;1.00;;;;;;4990865;28;20882;-58
2022/05/14 01:38:47;;;;;;;10.55;4.10;;;11.50;1.00;;;;;;4991499;28;20422;-57
2022/05/14 01:41:12;;;;;;;8.10;4.30;;;10.30;27.90;;;;;;4991699;28;21244;-56
2022/05/14 01:43:38;;;;;;;8.65;3.83;;;11.40;38.60;;;;;;4990559;28;20395;-58
2022/05/14 01:46:05;;;;;;;9.90;4.00;;;11.40;1.00;;;;;;4991407;28;20402;-58
2022/05/14 01:48:31;;;;;;;8.13;4.13;;;11.40;1.00;;;;;;4991238;28;20454;-58
2022/05/14 01:50:56;;;;;;;8.60;4.07;;;11.50;1.00;;;;;;4991660;28;20434;-60
2022/05/14 01:53:22;;;;;;;7.53;3.70;;;11.40;73.60;;;;;;4990697;28;20405;-59
2022/05/14 01:55:48;;;;;;;8.70;4.00;;;11.40;67.70;;;;;;4991623;28;20429;-58
2022/05/14 02:00:58;;;;;;;9.57;4.32;;;11.30;99.90;;;;;;4990718;28;20402;-58
2022/05/14 02:03:23;;;;;;;9.50;4.68;;;11.30;99.90;;;;;;4990925;28;20394;-57
2022/05/14 02:05:49;;;;;;;12.53;4.53;;;11.30;99.90;;;;;;4991355;28;20418;-57
2022/05/14 02:08:15;;;;;;;10.27;4.45;;;11.20;99.90;;;;;;4991105;28;20743;-55
2022/05/14 02:10:40;;;;;;;8.47;4.10;;;11.20;1.00;;;;;;4990725;28;20493;-58
2022/05/14 02:13:06;;;;;;;10.80;4.47;;;11.20;99.90;;;;;;4991341;28;20752;-58
2022/05/14 02:15:32;;;;;;;10.38;4.50;;;11.00;1.00;;;;;;4990514;28;20403;-58
2022/05/14 02:17:57;;;;;;;7.67;4.00;;;11.00;1.00;;;;;;4991241;28;20528;-58
2022/05/14 02:20:24;;;;;;;8.23;4.32;;;11.00;1.00;;;;;;4990710;28;20393;-58
2022/05/14 02:22:51;;;;;;;9.80;5.10;;;11.00;1.00;;;;;;4991350;28;20482;-60
2022/05/14 02:25:19;;;;;;;7.97;4.23;;;10.90;1.00;;;;;;4989345;28;20756;-54
2022/05/14 02:27:45;;;;;;;8.65;3.80;;;10.90;1.00;;;;;;4990455;28;20434;-58
2022/05/14 02:30:12;;;;;;;10.40;4.20;;;10.90;1.00;;;;;;4990416;28;20399;-58
2022/05/14 02:32:38;;;;;;;7.90;3.92;;;10.90;1.00;;;;;;4990344;28;20394;-59
2022/05/14 02:35:05;;;;;;;10.03;4.20;;;11.00;1.00;;;;;;4990162;28;20610;-59
2022/05/14 02:37:31;;;;;;;10.00;4.05;;;11.00;1.00;;;;;;4989874;28;20457;-59
2022/05/14 02:39:57;;;;;;;7.22;3.70;;;11.00;1.00;;;;;;4990449;28;20398;-57
2022/05/14 02:42:23;;;;;;;9.65;4.00;;;11.10;1.00;;;;;;4989451;28;20391;-57
2022/05/14 02:44:49;;;;;;;8.30;3.70;;;11.10;99.90;;;;;;4990757;28;20947;-58
2022/05/14 02:47:15;;;;;;;8.90;3.50;;;11.00;99.90;;;;;;4990237;28;20406;-55
2022/05/14 02:49:41;;;;;;;8.10;3.50;;;11.00;1.00;;;;;;4990234;28;20445;-57
2022/05/14 02:52:07;;;;;;;8.37;3.73;;;11.10;99.90;;;;;;4990522;28;20840;-58
2022/05/14 02:54:34;;;;;;;8.47;3.90;;;11.10;99.90;;;;;;4989666;28;20407;-58
2022/05/14 02:56:59;;;;;;;8.63;4.00;;;11.00;99.90;;;;;;4990258;28;20405;-58
2022/05/14 02:59:26;;;;;;;9.43;3.77;;;11.00;99.90;;;;;;4989667;28;20398;-58
2022/05/14 03:01:52;;;;;;;9.23;3.70;;;11.00;99.90;;;;;;4990130;28;20819;-58
2022/05/14 03:04:24;;;;;;;9.18;3.60;;;11.00;99.90;;;;;;4989888;28;20906;-56
2022/05/14 03:06:52;;;;;;;7.80;3.60;;;10.90;1.00;;;;;;4990453;28;20394;-60
2022/05/14 03:09:17;;;;;;;10.67;3.67;;;10.90;99.90;;;;;;4989385;28;20414;-57
2022/05/14 03:11:43;;;;;;;10.32;3.80;;;10.90;1.00;;;;;;4989813;28;20481;-59
2022/05/14 03:14:09;;;;;;;9.15;3.63;;;10.90;1.00;;;;;;4990529;28;20387;-60
2022/05/14 03:16:36;;;;;;;9.27;3.60;;;10.90;1.00;;;;;;4989405;28;20399;-60
2022/05/14 03:19:02;;;;;;;11.67;3.50;;;10.90;1.00;;;;;;4990446;28;20410;-58
2022/05/14 03:21:28;;;;;;;9.48;3.65;;;10.90;1.00;;;;;;4989325;28;20413;-60
2022/05/14 03:23:54;;;;;;;7.70;3.75;;;10.90;99.90;;;;;;4987599;28;20482;-58
2022/05/14 03:26:19;;;;;;;9.33;3.67;;;10.90;99.90;;;;;;4989114;28;20868;-55
2022/05/14 03:28:46;;;;;;;9.07;3.70;;;10.90;1.00;;;;;;4989557;28;20394;-58
2022/05/14 03:31:12;;;;;;;8.65;3.60;;;10.90;1.00;;;;;;4989508;28;20485;-58
2022/05/14 03:33:38;;;;;;;8.18;3.50;;;10.90;99.90;;;;;;4988819;28;21024;-58
2022/05/14 03:36:04;;;;;;;10.65;3.72;;;11.00;99.90;;;;;;4989444;28;20422;-58
2022/05/14 03:38:29;;;;;;;9.85;3.90;;;10.80;99.90;;;;;;4971909;28;20738;-58
2022/05/14 03:40:55;;;;;;;7.67;3.70;;;10.70;99.90;;;;;;4989726;28;20434;-59
2022/05/14 03:43:21;;;;;;;9.57;3.57;;;10.70;1.00;;;;;;4988527;28;20401;-57
2022/05/14 03:45:46;;;;;;;10.98;3.70;;;10.80;99.90;;;;;;4989542;28;20398;-59
2022/05/14 03:48:12;;;;;;;9.60;3.80;;;10.80;99.90;;;;;;4989575;28;20765;-60
2022/05/14 03:50:38;;;;;;;9.48;3.80;;;10.80;1.00;;;;;;4989049;28;21081;-61
2022/05/14 03:53:03;;;;;;;9.00;3.77;;;10.80;1.00;;;;;;4989624;28;20402;-63
2022/05/14 03:55:29;;;;;;;9.35;3.80;;;10.80;1.00;;;;;;4988515;28;20399;-60
2022/05/14 03:57:55;;;;;;;8.60;4.23;;;10.90;1.00;;;;;;4989357;28;20399;-59
2022/05/14 04:00:20;;;;;;;11.32;4.57;;;11.00;99.90;;;;;;4988516;28;20892;-56
2022/05/14 04:02:47;;;;;;;9.63;4.43;;;11.10;99.90;;;;;;4972108;28;20394;-59
2022/05/14 04:05:14;;;;;;;9.37;4.90;;;11.10;99.90;;;;;;4989412;28;20397;-59
2022/05/14 04:07:40;;;;;;;10.30;4.75;;;11.10;1.00;;;;;;4988637;28;20398;-59
2022/05/14 04:10:07;;;;;;;16.17;5.40;;;11.20;1.00;;;;;;4989041;28;20418;-59
2022/05/14 04:12:33;;;;;;;11.15;5.55;;;11.20;1.00;;;;;;4988874;28;20405;-59
2022/05/14 04:14:59;;;;;;;12.20;5.97;;;11.10;99.90;;;;;;4989664;28;20426;-59
2022/05/14 04:17:25;;;;;;;12.80;5.80;;;11.20;99.90;;;;;;4988876;28;20781;-59
2022/05/14 04:19:50;;;;;;;9.73;5.30;;;11.30;99.90;;;;;;4988448;28;20868;-59
2022/05/14 04:22:16;;;;;;;9.48;5.47;;;11.20;99.90;;;;;;4989523;28;20410;-58
2022/05/14 04:24:42;;;;;;;9.33;5.20;;;11.20;99.90;;;;;;4988767;28;20437;-59
2022/05/14 04:27:07;;;;;;;10.60;5.70;;;11.30;99.90;;;;;;4989114;28;20725;-59
2022/05/14 04:29:33;;;;;;;10.20;5.43;;;11.30;99.90;;;;;;4988323;28;20387;-59
2022/05/14 04:31:58;;;;;;;10.27;5.20;;;11.30;99.90;;;;;;4989297;28;20501;-59
2022/05/14 04:34:24;;;;;;;11.70;5.25;;;11.40;99.90;;;;;;4987830;28;20430;-58
2022/05/14 04:36:50;;;;;;;10.80;5.73;;;11.40;1.00;;;;;;4988949;28;20449;-58
2022/05/14 04:39:15;;;;;;;11.25;5.55;;;11.40;1.00;;;;;;4989490;28;20406;-59
2022/05/14 04:41:42;;;;;;;10.77;5.80;;;11.60;1.00;;;;;;4987657;28;20915;-58
2022/05/14 04:44:07;;;;;;;11.95;5.30;;;11.60;1.00;;;;;;4989294;28;20391;-59
2022/05/14 04:46:35;;;;;;;12.50;5.53;;;11.70;99.90;;;;;;4988338;28;20750;-59
2022/05/14 04:49:01;;;;;;;11.05;6.50;;;12.00;99.90;;;;;;4989060;28;20437;-59
2022/05/14 04:51:27;;;;;;;12.30;5.70;;;11.90;99.90;;;;;;4987846;28;20497;-59
2022/05/14 04:53:53;;;;;;;12.95;5.78;;;12.10;99.90;;;;;;4988781;28;20804;-59
2022/05/14 04:56:18;;;;;;;16.70;5.80;;;12.40;99.90;;;;;;4988676;28;20493;-57
2022/05/14 04:58:44;;;;;;;11.45;4.85;;;13.20;89.90;;;;;;4990988;28;20398;-58
2022/05/14 05:01:10;;;;;;;9.60;5.00;;;14.60;1.00;;;;;;4992556;28;20410;-59
2022/05/14 05:03:36;;;;;;;11.70;5.38;;;15.90;1.00;;;;;;4991797;28;20410;-59
2022/05/14 05:06:02;;;;;;;8.90;4.78;;;17.20;5.90;;;;;;4992146;28;20395;-57
2022/05/14 05:08:30;;;;;;;9.67;5.60;;;18.00;1.00;;;;;;4991438;28;20425;-59
2022/05/14 05:10:57;;;;;;;10.02;5.50;;;18.30;1.00;;;;;;4987081;28;20426;-59
2022/05/14 05:13:25;;;;;;;9.02;4.70;;;18.70;1.00;;;;;;4996462;28;20400;-56
2022/05/14 05:15:51;;;;;;;9.73;4.63;;;19.60;99.90;;;;;;4992434;28;20399;-59
2022/05/14 05:18:18;;;;;;;10.35;4.70;;;20.20;99.90;;;;;;4984773;28;20408;-58
2022/05/14 05:20:45;;;;;;;9.55;4.93;;;20.80;99.90;;;;;;4994270;28;20399;-60
2022/05/14 05:23:16;;;;;;;8.93;4.90;;;21.60;99.90;;;;;;4992485;28;20411;-60
2022/05/14 05:25:42;;;;;;;10.77;5.40;;;22.50;99.90;;;;;;4991527;28;20411;-60
2022/05/14 05:28:09;;;;;;;11.35;6.03;;;24.00;99.90;;;;;;4994806;28;20394;-60
2022/05/14 05:30:34;;;;;;;9.90;7.03;;;24.80;99.90;;;;;;4982290;28;20847;-60
2022/05/14 05:33:00;;;;;;;13.45;6.70;;;25.10;99.90;;;;;;4982565;28;20505;-60
2022/05/14 05:35:27;;;;;;;10.20;7.55;;;25.60;99.90;;;;;;4986370;28;20417;-60
2022/05/14 05:37:52;;;;;;;10.93;7.47;;;26.20;99.90;;;;;;4989230;28;20411;-60
2022/05/14 05:40:18;;;;;;;14.20;7.35;;;25.20;99.90;;;;;;4990528;28;20772;-57
2022/05/14 05:42:45;;;;;;;10.35;6.65;;;25.00;99.90;;;;;;5000881;28;20399;-60
2022/05/14 05:45:13;;;;;;;10.25;7.65;;;25.70;99.90;;;;;;4991178;28;20892;-59
2022/05/14 05:47:39;;;;;;;10.05;7.13;;;26.30;99.90;;;;;;4991062;28;20982;-60
2022/05/14 05:50:06;;;;;;;10.60;7.65;;;26.20;99.90;;;;;;5009260;28;20420;-61
2022/05/14 05:52:32;;;;;;;9.05;6.35;;;26.80;99.90;;;;;;4973038;28;20468;-60
2022/05/14 05:57:43;;;;;;;9.50;6.88;;;26.80;99.90;;;;;;4989077;28;20421;-61
2022/05/14 06:00:16;;;;;;;11.10;7.38;;;27.00;99.90;;;;;;5011080;28;20448;-61
2022/05/14 06:02:42;;;;;;;12.40;7.30;;;27.30;99.90;;;;;;4991554;28;20414;-61
2022/05/14 06:05:08;;;;;;;11.60;6.80;;;27.70;99.90;;;;;;4985036;28;20414;-60
2022/05/14 06:07:35;;;;;;;13.43;7.22;;;27.70;99.90;;;;;;4991505;28;20394;-61
2022/05/14 06:10:03;;;;;;;12.20;8.10;;;27.50;99.90;;;;;;4989483;28;20424;-60
2022/05/14 06:12:29;;;;;;;12.65;6.60;;;27.90;99.90;;;;;;4993371;28;20877;-60
2022/05/14 06:14:55;;;;;;;10.35;6.07;;;28.40;99.90;;;;;;4997766;28;20379;-60
2022/05/14 06:17:21;;;;;;;8.60;4.40;;;28.70;99.90;;;;;;4991445;28;20393;-58
2022/05/14 06:19:47;;;;;;;7.82;5.93;;;29.30;99.90;;;;;;4991565;28;20469;-61
2022/05/14 06:22:12;;;;;;;10.18;4.20;;;29.50;99.90;;;;;;4997650;28;20409;-60
2022/05/14 06:24:38;;;;;;;11.70;6.60;;;29.00;99.90;;;;;;4990396;28;21271;-60
2022/05/14 06:27:04;;;;;;;9.30;4.00;;;28.40;99.90;;;;;;4991302;28;20382;-59
2022/05/14 06:29:31;;;;;;;7.57;3.33;;;28.50;99.90;;;;;;4990604;28;20474;-61
2022/05/14 06:31:57;;;;;;;12.40;11.20;;;28.50;99.90;;;;;;4991384;28;20445;-61
2022/05/14 06:34:25;;;;;;;11.80;7.47;;;28.50;99.90;;;;;;4990196;28;20493;-61
2022/05/14 06:36:51;;;;;;;8.68;5.80;;;29.00;99.90;;;;;;4991085;28;20967;-61
2022/05/14 06:39:17;;;;;;;7.97;4.60;;;29.30;99.90;;;;;;4991672;28;20931;-61
2022/05/14 06:41:43;;;;;;;8.00;3.38;;;29.40;99.90;;;;;;4990701;28;20470;-62
2022/05/14 06:44:08;;;;;;;11.07;6.45;;;29.60;99.90;;;;;;4990786;28;20490;-61
2022/05/14 06:46:35;;;;;;;9.93;5.38;;;30.00;99.90;;;;;;4990552;28;20382;-61
2022/05/14 06:49:01;;;;;;;7.40;3.00;;;31.30;99.90;;;;;;4989935;28;20439;-61
2022/05/14 06:51:28;;;;;;;10.40;5.45;;;31.30;99.90;;;;;;4990000;28;20410;-61
2022/05/14 06:53:59;;;;;;;8.80;7.50;;;31.30;99.90;;;;;;4990450;28;20410;-60
2022/05/14 06:56:26;;;;;;;8.80;4.70;;;31.60;99.90;;;;;;4989345;28;20402;-61
2022/05/14 06:58:52;;;;;;;8.18;4.57;;;31.50;99.90;;;;;;5001575;28;20388;-61
2022/05/14 07:01:19;;;;;;;9.38;3.45;;;31.30;99.90;;;;;;5005800;28;20394;-61
2022/05/14 07:06:38;;;;;;;8.85;2.50;;;30.80;99.90;;;;;;4989760;28;20493;-61
2022/05/14 07:09:11;;;;;;;8.05;2.78;;;30.70;99.90;;;;;;4989604;28;20505;-62
2022/05/14 07:11:37;;;;;;;11.25;3.58;;;30.60;99.90;;;;;;4986307;28;20434;-61
2022/05/14 07:14:05;;;;;;;8.65;3.50;;;30.90;99.90;;;;;;4998445;28;20396;-60
2022/05/14 07:16:31;;;;;;;8.40;3.33;;;31.40;99.90;;;;;;5009003;28;20384;-62
2022/05/14 07:18:56;;;;;;;10.90;5.65;;;30.60;99.90;;;;;;5010084;28;20387;-62
2022/05/14 07:21:22;;;;;;;9.50;5.43;;;30.90;99.90;;;;;;5009413;28;20381;-58
2022/05/14 07:23:47;;;;;;;7.73;3.00;;;31.00;99.90;;;;;;5009754;28;20385;-61
2022/05/14 07:26:13;;;;;;;9.07;5.60;;;30.40;99.90;;;;;;5009759;28;20527;-62
2022/05/14 07:28:39;;;;;;;9.10;3.33;;;29.90;99.90;;;;;;5009325;28;20872;-62
2022/05/14 07:31:05;;;;;;;8.13;2.85;;;29.80;99.90;;;;;;5009819;28;20774;-62
2022/05/14 07:33:31;;;;;;;6.75;2.40;;;29.90;99.90;;;;;;5008987;28;20501;-62
2022/05/14 07:36:01;;;;;;;7.35;2.30;;;30.60;99.90;;;;;;5009798;28;20528;-62
2022/05/14 07:38:28;;;;;;;7.40;2.45;;;31.80;99.90;;;;;;4991836;28;20497;-62
2022/05/14 07:40:54;;;;;;;12.10;9.27;;;32.20;99.90;;;;;;5010166;28;20439;-62
2022/05/14 07:43:30;;;;;;;9.30;2.40;;;32.10;99.90;;;;;;5009902;28;20799;-63
2022/05/14 07:46:01;;;;;;;7.37;2.90;;;31.40;99.90;;;;;;5009924;28;21005;-63
2022/05/14 07:48:34;;;;;;;8.57;3.10;;;30.50;99.90;;;;;;5008923;28;20389;-63
2022/05/14 07:51:03;;;;;;;8.63;2.78;;;30.90;99.90;;;;;;5009708;28;20400;-63
2022/05/14 07:53:32;;;;;;;8.60;2.88;;;31.00;99.90;;;;;;5008734;28;20381;-62
2022/05/14 07:55:58;;;;;;;8.63;3.00;;;31.20;99.90;;;;;;5009842;28;20377;-63
2022/05/14 07:58:24;;;;;;;8.38;3.67;;;31.80;99.90;;;;;;5009236;28;20385;-59
2022/05/14 08:00:51;;;;;;;7.78;3.80;;;31.60;99.90;;;;;;5009743;28;20389;-63
2022/05/14 08:03:17;;;;;;;10.23;5.90;;;31.40;99.90;;;;;;5009672;28;20480;-63
2022/05/14 08:05:43;;;;;;;7.20;3.13;;;31.40;99.90;;;;;;5008985;28;20554;-63
2022/05/14 08:08:08;;;;;;;9.23;4.00;;;32.20;99.90;;;;;;5008889;28;20392;-62
2022/05/14 08:10:35;;;;;;;8.43;4.67;;;31.80;99.90;;;;;;5008877;28;20900;-62
2022/05/14 08:13:00;;;;;;;10.38;6.93;;;30.90;99.90;;;;;;5009249;28;20389;-63
2022/05/14 08:15:27;;;;;;;10.50;3.70;;;31.10;99.90;;;;;;4989215;28;20401;-59
2022/05/14 08:17:54;;;;;;;9.05;2.50;;;30.90;99.90;;;;;;4989977;28;20382;-63
2022/05/14 08:20:20;;;;;;;8.60;6.70;;;30.70;99.90;;;;;;4990101;28;20438;-63
2022/05/14 08:25:30;;;;;;;10.27;5.70;;;29.30;99.90;;;;;;4988796;28;20385;-63
2022/05/14 08:27:57;;;;;;;7.50;5.70;;;29.50;99.90;;;;;;4989721;28;20386;-64
2022/05/14 08:30:28;;;;;;;8.52;6.85;;;30.70;99.90;;;;;;4989317;28;20383;-58
2022/05/14 08:32:54;;;;;;;5.88;1.83;;;31.40;99.90;;;;;;4990856;28;20489;-63
2022/05/14 08:35:22;;;;;;;6.70;3.25;;;31.70;99.90;;;;;;4993855;28;20872;-63
2022/05/14 08:37:51;;;;;;;6.50;2.20;;;32.30;99.90;;;;;;4992709;28;20486;-64
2022/05/14 08:40:17;;;;;;;6.82;1.60;;;32.50;99.90;;;;;;4993853;28;20402;-64
2022/05/14 08:42:47;;;;;;;6.50;2.00;;;32.40;99.90;;;;;;4992930;28;20775;-63
2022/05/14 08:45:15;;;;;;;8.02;1.80;;;32.80;99.90;;;;;;4993740;28;20374;-62
2022/05/14 08:47:54;;;;;;;8.15;5.50;;;32.90;99.90;;;;;;4992678;28;20855;-64
2022/05/14 08:50:23;;;;;;;8.40;6.00;;;32.30;99.90;;;;;;4993392;28;20393;-63
2022/05/14 08:52:49;;;;;;;7.93;4.70;;;31.50;99.90;;;;;;4992843;28;20464;-59
2022/05/14 08:55:17;;;;;;;7.80;4.47;;;31.50;99.90;;;;;;4993712;28;20473;-63
2022/05/14 08:58:00;;;;;;;8.55;5.63;;;31.00;99.90;;;;;;4992814;28;20457;-63
2022/05/14 09:00:26;;;;;;;8.05;5.70;;;30.80;99.90;;;;;;4992809;28;20437;-58
2022/05/14 09:02:54;;;;;;;9.70;5.28;;;30.70;99.90;;;;;;4992858;28;20378;-62
2022/05/14 09:05:32;;;;;;;8.18;4.60;;;29.80;99.90;;;;;;4993301;28;20386;-64
2022/05/14 09:07:58;;;;;;;6.78;5.03;;;30.90;99.90;;;;;;4992807;28;20417;-64
2022/05/14 09:10:30;;;;;;;7.72;4.70;;;31.60;99.90;;;;;;4991761;28;20737;-59
2022/05/14 09:13:18;;;;;;;7.78;4.47;;;31.50;99.90;;;;;;4997620;28;20776;-60
2022/05/14 09:15:51;;;;;;;8.40;4.50;;;31.80;99.90;;;;;;4995124;28;21019;-64
2022/05/14 09:18:41;;;;;;;7.57;5.40;;;32.20;99.90;;;;;;5012426;28;20392;-64
2022/05/14 09:21:21;;;;;;;7.95;1.67;;;32.80;99.90;;;;;;4981521;28;20530;-65
2022/05/14 09:23:54;;;;;;;6.18;2.00;;;32.20;99.90;;;;;;4988674;28;20385;-65
2022/05/14 09:26:24;;;;;;;7.30;2.70;;;33.00;99.90;;;;;;5001691;28;20385;-66
2022/05/14 09:28:56;;;;;;;9.23;5.10;;;33.70;99.90;;;;;;4995956;28;20397;-64
2022/05/14 09:31:36;;;;;;;9.80;6.30;;;33.80;99.90;;;;;;4992849;28;20514;-66
2022/05/14 09:34:04;;;;;;;8.02;5.10;;;33.30;99.90;;;;;;4997594;28;20905;-65
2022/05/14 09:36:31;;;;;;;7.25;4.50;;;32.80;99.90;;;;;;5003398;28;20481;-66
2022/05/14 09:39:02;;;;;;;8.10;4.10;;;32.80;99.90;;;;;;4987807;28;20432;-65
2022/05/14 09:41:28;;;;;;;7.38;4.50;;;31.70;99.90;;;;;;4999253;28;20859;-59
2022/05/14 09:43:55;;;;;;;8.32;1.55;;;31.60;99.90;;;;;;4997240;28;20410;-62
2022/05/14 09:46:27;;;;;;;8.07;4.40;;;32.40;99.90;;;;;;4997803;28;20406;-64
2022/05/14 09:49:04;;;;;;;8.18;5.65;;;32.00;99.90;;;;;;4992724;28;20392;-65
2022/05/14 09:51:37;;;;;;;8.20;4.28;;;32.30;99.90;;;;;;4989749;28;20414;-65
2022/05/14 09:54:24;;;;;;;7.63;4.50;;;32.60;99.90;;;;;;4989688;28;20438;-65
2022/05/14 09:57:01;;;;;;;8.13;4.03;;;31.80;99.90;;;;;;4990926;28;20412;-63
2022/05/14 09:59:42;;;;;;;6.32;4.20;;;31.40;99.90;;;;;;4986743;28;20759;-59
2022/05/14 10:02:23;;;;;;;6.45;4.60;;;31.70;99.90;;;;;;4991119;28;20395;-65
2022/05/14 10:04:56;;;;;;;6.90;5.53;;;31.40;99.90;;;;;;4988620;28;20386;-65
2022/05/14 10:07:33;;;;;;;7.35;6.20;;;31.40;99.90;;;;;;4988233;28;20387;-65
2022/05/14 10:10:11;;;;;;;7.55;6.30;;;31.70;99.90;;;;;;4990442;28;20494;-65
2022/05/14 10:12:44;;;;;;;7.22;5.53;;;31.50;99.90;;;;;;4996304;28;20417;-63
2022/05/14 10:15:56;;;;;;;7.28;6.00;;;31.80;99.90;;;;;;4981980;28;20405;-65
2022/05/14 10:18:22;;;;;;;8.40;6.30;;;32.50;99.90;;;;;;4989179;28;20387;-65
2022/05/14 10:21:16;;;;;;;9.20;6.40;;;30.60;99.90;;;;;;4991002;28;20402;-65
2022/05/14 10:26:50;;;;;;;7.35;4.60;;;30.00;99.90;;;;;;4991210;28;21012;-64
2022/05/14 10:29:54;;;;;;;7.85;4.68;;;30.80;99.90;;;;;;4991350;28;20474;-64
2022/05/14 10:32:21;;;;;;;8.23;5.43;;;30.40;99.90;;;;;;4990083;28;20899;-64
2022/05/14 10:35:26;;;;;;;7.10;5.60;;;29.60;99.90;;;;;;4990400;28;20391;-64
2022/05/14 10:38:21;;;;;;;9.00;5.10;;;28.50;99.90;;;;;;4990086;28;20403;-67
2022/05/14 10:40:53;;;;;;;7.10;5.60;;;28.20;99.90;;;;;;4914016;28;20413;-66
2022/05/14 10:43:47;;;;;;;7.70;5.60;;;27.70;99.90;;;;;;4991635;28;20387;-64
2022/05/14 10:46:19;;;;;;;6.97;5.30;;;27.50;99.90;;;;;;4988570;28;20401;-64
2022/05/14 10:49:19;;;;;;;8.73;5.20;;;27.20;99.90;;;;;;4988152;28;20526;-65
2022/05/14 10:51:50;;;;;;;8.90;5.57;;;26.40;99.90;;;;;;4987775;28;20493;-64
2022/05/14 10:54:22;;;;;;;11.07;5.72;;;26.00;99.90;;;;;;4991052;28;20390;-64
2022/05/14 10:57:00;;;;;;;6.03;5.07;;;25.70;99.90;;;;;;4992645;28;21268;-64
2022/05/14 10:59:42;;;;;;;8.00;5.60;;;26.10;99.90;;;;;;4990219;28;20423;-57
2022/05/14 11:02:15;;;;;;;7.03;5.20;;;26.10;99.90;;;;;;5007311;28;20859;-64
2022/05/14 11:04:42;;;;;;;7.30;5.50;;;25.80;99.90;;;;;;5002039;28;20443;-64
2022/05/14 11:07:16;;;;;;;7.32;5.60;;;25.50;99.90;;;;;;4994804;28;20473;-64
2022/05/14 11:09:49;;;;;;;8.13;5.57;;;25.90;99.90;;;;;;4993981;28;20422;-64
2022/05/14 11:12:37;;;;;;;7.28;6.00;;;26.30;99.90;;;;;;5004258;28;20410;-64
2022/05/14 11:15:16;;;;;;;6.93;4.88;;;26.50;99.90;;;;;;4989596;28;20446;-63
2022/05/14 11:17:42;;;;;;;7.10;5.43;;;26.60;99.90;;;;;;4989966;28;20418;-65
2022/05/14 11:20:15;;;;;;;8.33;5.50;;;26.40;99.90;;;;;;4990465;28;20434;-65
2022/05/14 11:22:43;;;;;;;7.18;4.70;;;26.10;99.90;;;;;;4989792;28;20478;-65
2022/05/14 11:25:19;;;;;;;6.40;4.93;;;25.90;99.90;;;;;;4989083;28;20403;-63
2022/05/14 11:28:00;;;;;;;7.97;4.72;;;26.10;99.90;;;;;;4989037;28;20401;-64
2022/05/14 11:30:34;;;;;;;11.50;4.72;;;26.20;99.90;;;;;;4989254;28;20938;-57
2022/05/14 11:33:02;;;;;;;10.85;4.63;;;26.50;99.90;;;;;;4990269;28;20398;-64
2022/05/14 11:35:42;;;;;;;7.78;4.57;;;26.30;99.90;;;;;;4988806;28;20426;-58
2022/05/14 11:38:29;;;;;;;8.13;5.22;;;26.30;99.90;;;;;;4992882;28;20495;-64
2022/05/14 11:40:57;;;;;;;6.60;4.70;;;26.30;99.90;;;;;;4988217;28;20529;-64
2022/05/14 11:43:26;;;;;;;9.80;5.15;;;26.70;99.90;;;;;;4973904;28;20713;-65
2022/05/14 11:46:19;;;;;;;6.40;3.60;;;26.50;99.90;;;;;;4988993;28;20449;-65
2022/05/14 11:49:10;;;;;;;8.10;5.00;;;26.50;99.90;;;;;;4987678;28;20408;-63
2022/05/14 11:51:57;;;;;;;7.57;5.00;;;26.10;99.90;;;;;;4989179;28;20426;-64
2022/05/14 11:54:29;;;;;;;6.57;5.40;;;26.10;99.90;;;;;;4987386;28;20429;-64
2022/05/14 11:57:20;;;;;;;7.82;4.50;;;26.40;99.90;;;;;;4987884;28;20387;-64
2022/05/14 11:59:55;;;;;;;7.20;4.97;;;26.30;99.90;;;;;;4989330;28;20707;-64
2022/05/14 12:02:29;;;;;;;7.18;5.00;;;26.30;99.90;;;;;;4990612;28;20391;-63
2022/05/14 12:04:58;;;;;;;6.90;4.55;;;26.40;99.90;;;;;;4989342;28;20836;-64
2022/05/14 12:07:53;;;;;;;8.63;5.30;;;26.50;99.90;;;;;;4989060;28;20493;-64
2022/05/14 12:10:44;;;;;;;10.80;5.07;;;26.50;99.90;;;;;;4988287;28;20724;-60
2022/05/14 12:13:22;;;;;;;8.23;5.00;;;26.20;99.90;;;;;;4986654;28;20419;-62
2022/05/14 12:15:54;;;;;;;8.30;5.40;;;26.10;99.90;;;;;;4990712;28;20458;-60
2022/05/14 12:18:21;;;;;;;6.82;5.10;;;25.80;99.90;;;;;;4990267;28;20378;-64
2022/05/14 12:20:53;;;;;;;7.32;5.13;;;26.10;99.90;;;;;;4989995;28;20379;-64
2022/05/14 12:23:18;;;;;;;7.47;5.20;;;26.00;99.90;;;;;;4976813;28;20523;-64
2022/05/14 12:25:47;;;;;;;6.30;4.60;;;26.20;99.90;;;;;;4981030;28;20486;-64
2022/05/14 12:28:31;;;;;;;8.95;5.30;;;26.30;99.90;;;;;;4988120;28;20437;-64
2022/05/14 12:33:52;;;;;;;9.13;6.07;;;27.10;99.90;;;;;;4990348;28;20401;-64
2022/05/14 12:36:18;;;;;;;8.90;4.38;;;26.90;99.90;;;;;;4991628;28;20402;-65
2022/05/14 12:38:44;;;;;;;7.47;5.60;;;26.50;99.90;;;;;;4983893;28;20446;-65
2022/05/14 12:41:27;;;;;;;8.40;5.32;;;26.40;99.90;;;;;;4970667;28;20963;-64
2022/05/14 12:43:53;;;;;;;8.60;5.70;;;26.40;99.90;;;;;;4989237;28;20435;-64
2022/05/14 12:46:19;;;;;;;8.02;5.43;;;26.40;99.90;;;;;;4988347;28;20589;-65
2022/05/14 12:48:51;;;;;;;7.88;5.20;;;26.20;99.90;;;;;;4980566;28;20460;-65
2022/05/14 12:51:24;;;;;;;6.95;5.55;;;26.30;99.90;;;;;;4970015;28;20878;-64
2022/05/14 12:53:52;;;;;;;8.02;5.47;;;26.50;99.90;;;;;;4969625;28;20392;-65
2022/05/14 12:56:20;;;;;;;15.55;6.63;;;26.50;99.90;;;;;;4970190;28;20395;-66
2022/05/14 12:58:48;;;;;;;7.10;5.20;;;26.50;99.90;;;;;;4970131;28;20404;-66
2022/05/14 13:01:17;;;;;;;7.93;5.00;;;26.40;99.90;;;;;;4970264;28;20380;-65
2022/05/14 13:04:05;;;;;;;9.00;6.33;;;26.60;99.90;;;;;;4969287;28;20483;-65
2022/05/14 13:06:34;;;;;;;8.10;5.30;;;26.70;99.90;;;;;;4969371;28;20392;-62
2022/05/14 13:09:05;;;;;;;7.35;5.38;;;26.60;99.90;;;;;;4986891;28;20417;-64
2022/05/14 13:11:34;;;;;;;9.90;5.63;;;26.40;99.90;;;;;;4988699;28;20421;-61
2022/05/14 13:14:21;;;;;;;12.50;5.90;;;26.70;99.90;;;;;;4989378;28;20402;-65
2022/05/14 13:17:05;;;;;;;12.82;6.00;;;26.70;99.90;;;;;;4988974;28;20398;-65
2022/05/14 13:19:45;;;;;;;14.73;8.10;;;26.30;99.90;;;;;;4990559;28;20401;-62